Ballerina — SKNY — position and weather

sailwx.info

Track history (hours):
 
Tides and Currents Weather Stations Pressure Air Temp Water Temp Dewpoint Dewpoint Depression Visibility Wind Speed Wind Dir Waves Ship Positions

Ballerina

Last reported at 2016-Jan-06 17:32 UTC. Time now 2016-Feb-10 02:45 UTC.
Position N 59°23' E 018°06'.
Warning: this ship's position is 34 days out of date.

Type: Passenger vessel. MMSI: 265550720.

Date/timePositionNaut miles runAvg speedWind from/ knotsBaromVisibWave heightAir tempDewpointWater temp
2016-Jan-06 17:32N 59°23' E 018°06'0 0.0
2016-Jan-06 14:33N 59°23' E 018°06'0 0.2
2016-Jan-06 12:06N 59°22' E 018°06'1 0.9
2016-Jan-06 11:12N 59°23' E 018°05'0 0.5
2016-Jan-06 10:32N 59°23' E 018°06'1 0.0
2016-Jan-05 18:30N 59°22' E 018°06'1 0.5
2016-Jan-05 17:09N 59°22' E 018°06'3 4.3
2016-Jan-05 16:31N 59°24' E 018°09'2 2.0
2016-Jan-05 15:27N 59°23' E 018°06'1 0.1
2016-Jan-05 09:06N 59°22' E 018°06'1 1.6
2016-Jan-05 08:13N 59°23' E 018°06'2 2.3
2016-Jan-05 07:25N 59°22' E 018°06'2 1.7
2016-Jan-05 06:30N 59°23' E 018°05'0 0.4
2016-Jan-05 05:22N 59°23' E 018°06'1 0.1
2016-Jan-04 18:28N 59°22' E 018°06'0 0.0
2016-Jan-04 17:05N 59°22' E 018°06'2 3.0
2016-Jan-04 16:28N 59°24' E 018°08'2 1.9
2016-Jan-04 15:33N 59°23' E 018°06'1 0.2
2016-Jan-04 09:09N 59°22' E 018°06'2 2.5
2016-Jan-04 08:18N 59°24' E 018°07'2 2.4
2016-Jan-04 07:26N 59°22' E 018°06'2 1.7
2016-Jan-04 06:32N 59°23' E 018°05'0 0.1
2016-Jan-04 05:17N 59°23' E 018°05'1 0.1
2016-Jan-03 17:33N 59°22' E 018°06'1 0.6
2016-Jan-03 16:14N 59°22' E 018°06'2 2.6
2016-Jan-03 15:26N 59°24' E 018°07'1 1.5
2016-Jan-03 14:33N 59°23' E 018°06'1 0.5
2016-Jan-03 12:14N 59°22' E 018°06'2 1.5
2016-Jan-03 11:15N 59°23' E 018°05'0 0.4
2016-Jan-03 10:33N 59°23' E 018°06'0 0.0
2016-Jan-02 17:33N 59°22' E 018°06'1 0.4
2016-Jan-02 16:08N 59°22' E 018°06'2 3.7
2016-Jan-02 15:30N 59°24' E 018°08'2 1.9
2016-Jan-02 14:33N 59°23' E 018°06'1 0.5
2016-Jan-02 12:10N 59°22' E 018°06'2 2.2
2016-Jan-02 11:17N 59°23' E 018°06'1 0.9
2016-Jan-02 10:32N 59°23' E 018°06'1 1.3
2016-Jan-02 09:32N 59°22' E 018°06'1 1.1
2016-Jan-02 08:14N 59°23' E 018°05'0 0.0
2016-Jan-01 17:34N 59°23' E 018°06'1 0.7
2016-Jan-01 16:11N 59°22' E 018°06'1 1.6
2016-Jan-01 15:15N 59°23' E 018°06'1 0.8
2016-Jan-01 14:33N 59°23' E 018°06'1 0.5
2016-Jan-01 12:13N 59°22' E 018°07'2 2.4
2016-Jan-01 11:21N 59°24' E 018°07'1 1.4
2016-Jan-01 10:33N 59°23' E 018°06'0 0.0
2015-Dec-31 17:33N 59°23' E 018°06'0 0.3
2015-Dec-31 16:04N 59°22' E 018°06'1 1.1
2015-Dec-31 15:16N 59°23' E 018°06'0 0.5
2015-Dec-31 14:31N 59°23' E 018°06'0 0.2
2015-Dec-31 12:04N 59°22' E 018°06'1 0.9
2015-Dec-31 11:14N 59°23' E 018°06'0 0.6
2015-Dec-31 10:33N 59°23' E 018°06'1 0.8
2015-Dec-31 09:09N 59°22' E 018°06'2 1.6
2015-Dec-31 08:13N 59°23' E 018°06'1 0.1
2015-Dec-30 18:29N 59°22' E 018°06'0 0.0
2015-Dec-30 17:04N 59°22' E 018°06'1 1.8
2015-Dec-30 16:20N 59°24' E 018°06'1 1.3
2015-Dec-30 15:31N 59°23' E 018°06'1 0.1
2015-Dec-30 09:05N 59°22' E 018°06'1 1.0
2015-Dec-30 08:14N 59°23' E 018°05'1 1.3
2015-Dec-30 07:23N 59°22' E 018°06'1 0.8
2015-Dec-30 06:30N 59°23' E 018°06'0 0.2
2015-Dec-30 05:18N 59°23' E 018°05'1 0.1
2015-Dec-29 18:33N 59°22' E 018°06'0 0.3
2015-Dec-29 17:06N 59°22' E 018°06'2 3.3
2015-Dec-29 16:28N 59°24' E 018°08'2 1.9
2015-Dec-29 15:33N 59°23' E 018°06'1 0.1
2015-Dec-29 09:10N 59°22' E 018°06'2 2.4
2015-Dec-29 08:21N 59°24' E 018°06'1 1.5
2015-Dec-29 07:22N 59°22' E 018°06'1 0.8
2015-Dec-29 06:30N 59°23' E 018°06'1 0.7
2015-Dec-29 05:23N 59°23' E 018°06'1 0.1
2015-Dec-28 18:32N 59°23' E 018°06'1 0.5
2015-Dec-28 17:07N 59°22' E 018°06'2 3.6
2015-Dec-28 16:32N 59°24' E 018°08'2 1.8
2015-Dec-28 15:33N 59°23' E 018°06'0 0.0
2015-Dec-28 09:04N 59°22' E 018°06'1 0.7
2015-Dec-28 08:13N 59°23' E 018°05'1 1.1
2015-Dec-28 07:24N 59°22' E 018°06'1 1.2
2015-Dec-28 06:32N 59°23' E 018°05'0 0.1
2015-Dec-28 05:19N 59°23' E 018°05'1 0.1
2015-Dec-27 17:33N 59°22' E 018°06'  
Track history (hours):
 
Tides and Currents Weather Stations Pressure Air Temp Water Temp Dewpoint Dewpoint Depression Visibility Wind Speed Wind Dir Waves Ship Positions

Ballerina

Last reported at 2016-Jan-06 17:32 UTC. Time now 2016-Feb-10 02:45 UTC.
Position N 59°23' E 018°06'.
Warning: this ship's position is 34 days out of date.

Type: Passenger vessel. MMSI: 265550720.

Date/timePositionNaut miles runAvg speedWind from/ knotsBaromVisibWave heightAir tempDewpointWater temp
2016-Jan-06 17:32N 59°23' E 018°06'0 0.0
2016-Jan-06 14:33N 59°23' E 018°06'0 0.2
2016-Jan-06 12:06N 59°22' E 018°06'1 0.9
2016-Jan-06 11:12N 59°23' E 018°05'0 0.5
2016-Jan-06 10:32N 59°23' E 018°06'1 0.0
2016-Jan-05 18:30N 59°22' E 018°06'1 0.5
2016-Jan-05 17:09N 59°22' E 018°06'3 4.3
2016-Jan-05 16:31N 59°24' E 018°09'2 2.0
2016-Jan-05 15:27N 59°23' E 018°06'1 0.1
2016-Jan-05 09:06N 59°22' E 018°06'1 1.6
2016-Jan-05 08:13N 59°23' E 018°06'2 2.3
2016-Jan-05 07:25N 59°22' E 018°06'2 1.7
2016-Jan-05 06:30N 59°23' E 018°05'0 0.4
2016-Jan-05 05:22N 59°23' E 018°06'1 0.1
2016-Jan-04 18:28N 59°22' E 018°06'0 0.0
2016-Jan-04 17:05N 59°22' E 018°06'2 3.0
2016-Jan-04 16:28N 59°24' E 018°08'2 1.9
2016-Jan-04 15:33N 59°23' E 018°06'1 0.2
2016-Jan-04 09:09N 59°22' E 018°06'2 2.5
2016-Jan-04 08:18N 59°24' E 018°07'2 2.4
2016-Jan-04 07:26N 59°22' E 018°06'2 1.7
2016-Jan-04 06:32N 59°23' E 018°05'0 0.1
2016-Jan-04 05:17N 59°23' E 018°05'1 0.1
2016-Jan-03 17:33N 59°22' E 018°06'1 0.6
2016-Jan-03 16:14N 59°22' E 018°06'2 2.6
2016-Jan-03 15:26N 59°24' E 018°07'1 1.5
2016-Jan-03 14:33N 59°23' E 018°06'1 0.5
2016-Jan-03 12:14N 59°22' E 018°06'2 1.5
2016-Jan-03 11:15N 59°23' E 018°05'0 0.4
2016-Jan-03 10:33N 59°23' E 018°06'0 0.0
2016-Jan-02 17:33N 59°22' E 018°06'1 0.4
2016-Jan-02 16:08N 59°22' E 018°06'2 3.7
2016-Jan-02 15:30N 59°24' E 018°08'2 1.9
2016-Jan-02 14:33N 59°23' E 018°06'1 0.5
2016-Jan-02 12:10N 59°22' E 018°06'2 2.2
2016-Jan-02 11:17N 59°23' E 018°06'1 0.9
2016-Jan-02 10:32N 59°23' E 018°06'1 1.3
2016-Jan-02 09:32N 59°22' E 018°06'1 1.1
2016-Jan-02 08:14N 59°23' E 018°05'0 0.0
2016-Jan-01 17:34N 59°23' E 018°06'1 0.7
2016-Jan-01 16:11N 59°22' E 018°06'1 1.6
2016-Jan-01 15:15N 59°23' E 018°06'1 0.8
2016-Jan-01 14:33N 59°23' E 018°06'1 0.5
2016-Jan-01 12:13N 59°22' E 018°07'2 2.4
2016-Jan-01 11:21N 59°24' E 018°07'1 1.4
2016-Jan-01 10:33N 59°23' E 018°06'0 0.0
2015-Dec-31 17:33N 59°23' E 018°06'0 0.3
2015-Dec-31 16:04N 59°22' E 018°06'1 1.1
2015-Dec-31 15:16N 59°23' E 018°06'0 0.5
2015-Dec-31 14:31N 59°23' E 018°06'0 0.2
2015-Dec-31 12:04N 59°22' E 018°06'1 0.9
2015-Dec-31 11:14N 59°23' E 018°06'0 0.6
2015-Dec-31 10:33N 59°23' E 018°06'1 0.8
2015-Dec-31 09:09N 59°22' E 018°06'2 1.6
2015-Dec-31 08:13N 59°23' E 018°06'1 0.1
2015-Dec-30 18:29N 59°22' E 018°06'0 0.0
2015-Dec-30 17:04N 59°22' E 018°06'1 1.8
2015-Dec-30 16:20N 59°24' E 018°06'1 1.3
2015-Dec-30 15:31N 59°23' E 018°06'1 0.1
2015-Dec-30 09:05N 59°22' E 018°06'1 1.0
2015-Dec-30 08:14N 59°23' E 018°05'1 1.3
2015-Dec-30 07:23N 59°22' E 018°06'1 0.8
2015-Dec-30 06:30N 59°23' E 018°06'0 0.2
2015-Dec-30 05:18N 59°23' E 018°05'1 0.1
2015-Dec-29 18:33N 59°22' E 018°06'0 0.3
2015-Dec-29 17:06N 59°22' E 018°06'2 3.3
2015-Dec-29 16:28N 59°24' E 018°08'2 1.9
2015-Dec-29 15:33N 59°23' E 018°06'1 0.1
2015-Dec-29 09:10N 59°22' E 018°06'2 2.4
2015-Dec-29 08:21N 59°24' E 018°06'1 1.5
2015-Dec-29 07:22N 59°22' E 018°06'1 0.8
2015-Dec-29 06:30N 59°23' E 018°06'1 0.7
2015-Dec-29 05:23N 59°23' E 018°06'1 0.1
2015-Dec-28 18:32N 59°23' E 018°06'1 0.5
2015-Dec-28 17:07N 59°22' E 018°06'2 3.6
2015-Dec-28 16:32N 59°24' E 018°08'2 1.8
2015-Dec-28 15:33N 59°23' E 018°06'0 0.0
2015-Dec-28 09:04N 59°22' E 018°06'1 0.7
2015-Dec-28 08:13N 59°23' E 018°05'1 1.1
2015-Dec-28 07:24N 59°22' E 018°06'1 1.2
2015-Dec-28 06:32N 59°23' E 018°05'0 0.1
2015-Dec-28 05:19N 59°23' E 018°05'1 0.1
2015-Dec-27 17:33N 59°22' E 018°06'  

Dump ship's entire track history